Time;durP1;ratioP1;P1;durP2;ratioP2;P2;SDS_P1;SDS_P2;PMS_P1;PMS_P2;Temp;Humidity;BMP_temperature;BMP_pressure;BME280_temperature;BME280_humidity;BME280_pressure;Samples;Min_cycle;Max_cycle;Signal;HPM_P1;HPM_P2
2023/03/02 00:01:46;;;;;;;25;10.8;;;;;;;;;;;;;-72
2023/03/02 00:02:02;;;;;;;;;;;;;;;2.13;88.16797;102790.3;;;;-71
2023/03/02 00:07:04;;;;;;;;;;;;;;;2.14;88.2998;102796.7;;;;-71
2023/03/02 00:12:01;;;;;;;;;;;;;;;2.17;88.23145;102793.4;;;;-71
2023/03/02 00:17:03;;;;;;;;;;;;;;;2.2;88.36914;102792.9;;;;-71
2023/03/02 00:22:01;;;;;;;;;;;;;;;2.23;88.50195;102798.8;;;;-70
2023/03/02 00:27:01;;;;;;;;;;;;;;;2.26;88.28223;102799.5;;;;-70
2023/03/02 00:31:45;;;;;;;26.5;11.7;;;;;;;;;;;;;-72
2023/03/02 00:32:02;;;;;;;;;;;;;;;2.29;88.14746;102804.3;;;;-71
2023/03/02 00:37:01;;;;;;;;;;;;;;;2.31;88.87598;102809;;;;-71
2023/03/02 00:42:02;;;;;;;;;;;;;;;2.32;88.75;102807.8;;;;-72
2023/03/02 00:47:01;;;;;;;;;;;;;;;2.35;88.74512;102801.3;;;;-71
2023/03/02 00:52:01;;;;;;;;;;;;;;;2.37;88.61914;102793.1;;;;-71
2023/03/02 00:57:03;;;;;;;;;;;;;;;2.39;88.91504;102795;;;;-71
2023/03/02 01:01:56;;;;;;;27.2;11.1;;;;;;;;;;;;;-71
2023/03/02 01:02:04;;;;;;;;;;;;;;;2.39;88.89551;102784.8;;;;-72
2023/03/02 01:07:01;;;;;;;;;;;;;;;2.42;88.44629;102783.8;;;;-72
2023/03/02 01:12:01;;;;;;;;;;;;;;;2.44;88.67578;102785.6;;;;-71
2023/03/02 01:17:01;;;;;;;;;;;;;;;2.44;88.43848;102787.8;;;;-71
2023/03/02 01:22:03;;;;;;;;;;;;;;;2.46;88.5293;102785.1;;;;-70
2023/03/02 01:27:01;;;;;;;;;;;;;;;2.47;88.17188;102775.9;;;;-71
2023/03/02 01:31:45;;;;;;;27;10.9;;;;;;;;;;;;;-70
2023/03/02 01:32:01;;;;;;;;;;;;;;;2.45;88.38672;102769.2;;;;-70
2023/03/02 01:37:01;;;;;;;;;;;;;;;2.44;88.54492;102762.6;;;;-71
2023/03/02 01:42:01;;;;;;;;;;;;;;;2.42;88.27051;102763.1;;;;-71
2023/03/02 01:47:01;;;;;;;;;;;;;;;2.39;88.09375;102768;;;;-71
2023/03/02 01:52:01;;;;;;;;;;;;;;;2.3;88.35645;102757.9;;;;-70
2023/03/02 01:57:02;;;;;;;;;;;;;;;2.27;88.03516;102759.1;;;;-70
2023/03/02 02:01:49;;;;;;;24.1;10.1;;;;;;;;;;;;;-71
2023/03/02 02:02:03;;;;;;;;;;;;;;;2.21;87.8291;102755.5;;;;-69
2023/03/02 02:07:03;;;;;;;;;;;;;;;2.11;87.89355;102750;;;;-70
2023/03/02 02:12:01;;;;;;;;;;;;;;;2.06;88.19824;102750.9;;;;-71
2023/03/02 02:17:01;;;;;;;;;;;;;;;2;87.91602;102755.4;;;;-71
2023/03/02 02:22:01;;;;;;;;;;;;;;;1.94;88.07422;102748.2;;;;-71
2023/03/02 02:27:01;;;;;;;;;;;;;;;1.91;87.96289;102748.2;;;;-71
2023/03/02 02:31:47;;;;;;;21.8;9.1;;;;;;;;;;;;;-70
2023/03/02 02:32:05;;;;;;;;;;;;;;;1.85;88.04688;102746.9;;;;-71
2023/03/02 02:37:03;;;;;;;;;;;;;;;1.78;87.99902;102738.1;;;;-71
2023/03/02 02:42:02;;;;;;;;;;;;;;;1.78;88.03418;102739.4;;;;-71
2023/03/02 02:47:01;;;;;;;;;;;;;;;1.73;88.05469;102736.6;;;;-71
2023/03/02 02:52:01;;;;;;;;;;;;;;;1.7;87.97363;102728.5;;;;-70
2023/03/02 02:57:02;;;;;;;;;;;;;;;1.65;87.69238;102722.8;;;;-71
2023/03/02 03:01:45;;;;;;;18;7.5;;;;;;;;;;;;;-70
2023/03/02 03:02:01;;;;;;;;;;;;;;;1.6;88.16992;102722;;;;-70
2023/03/02 03:07:04;;;;;;;;;;;;;;;1.56;87.90039;102720.9;;;;-70
2023/03/02 03:12:04;;;;;;;;;;;;;;;1.5;87.97363;102721.4;;;;-71
2023/03/02 03:17:01;;;;;;;;;;;;;;;1.45;88.05078;102725.1;;;;-71
2023/03/02 03:22:02;;;;;;;;;;;;;;;1.38;88.25195;102727.3;;;;-71
2023/03/02 03:27:05;;;;;;;;;;;;;;;1.34;87.93164;102720.8;;;;-71
2023/03/02 03:31:44;;;;;;;15.8;6.9;;;;;;;;;;;;;-71
2023/03/02 03:32:01;;;;;;;;;;;;;;;1.28;88.12402;102725.4;;;;-71
2023/03/02 03:37:04;;;;;;;;;;;;;;;1.24;88.36426;102728.9;;;;-71
2023/03/02 03:42:01;;;;;;;;;;;;;;;1.2;88.38965;102723.7;;;;-71
2023/03/02 03:47:01;;;;;;;;;;;;;;;1.17;88.61035;102722.8;;;;-71
2023/03/02 03:52:02;;;;;;;;;;;;;;;1.17;88.48145;102718.1;;;;-71
2023/03/02 03:57:01;;;;;;;;;;;;;;;1.17;88.56543;102720.1;;;;-72
2023/03/02 04:01:46;;;;;;;16.5;6.9;;;;;;;;;;;;;-72
2023/03/02 04:02:02;;;;;;;;;;;;;;;1.19;88.65527;102720.7;;;;-71
2023/03/02 04:07:01;;;;;;;;;;;;;;;1.23;88.6543;102725.1;;;;-70
2023/03/02 04:12:01;;;;;;;;;;;;;;;1.25;88.5625;102717.4;;;;-71
2023/03/02 04:17:04;;;;;;;;;;;;;;;1.28;88.61133;102724.1;;;;-72
2023/03/02 04:22:02;;;;;;;;;;;;;;;1.31;88.72363;102726.5;;;;-71
2023/03/02 04:27:03;;;;;;;;;;;;;;;1.34;88.75293;102719;;;;-71
2023/03/02 04:31:44;;;;;;;16.1;6.6;;;;;;;;;;;;;-71
2023/03/02 04:32:01;;;;;;;;;;;;;;;1.31;88.6709;102722;;;;-71
2023/03/02 04:37:01;;;;;;;;;;;;;;;1.31;88.94141;102719.2;;;;-71
2023/03/02 04:42:01;;;;;;;;;;;;;;;1.35;88.83008;102721.7;;;;-71
2023/03/02 04:47:01;;;;;;;;;;;;;;;1.38;88.88965;102721.9;;;;-72
2023/03/02 04:57:03;;;;;;;;;;;;;;;1.35;88.85156;102713.9;;;;-71
2023/03/02 05:01:44;;;;;;;16.9;7.1;;;;;;;;;;;;;-71
2023/03/02 05:02:02;;;;;;;;;;;;;;;1.36;88.81055;102717.3;;;;-71
2023/03/02 05:07:01;;;;;;;;;;;;;;;1.38;89.20313;102710.2;;;;-71
2023/03/02 05:12:02;;;;;;;;;;;;;;;1.39;89.16113;102714;;;;-71
2023/03/02 05:17:01;;;;;;;;;;;;;;;1.4;89.06836;102714.8;;;;-70
2023/03/02 05:22:01;;;;;;;;;;;;;;;1.39;88.89355;102719.1;;;;-70
2023/03/02 05:27:01;;;;;;;;;;;;;;;1.38;88.68652;102719.1;;;;-71
2023/03/02 05:31:44;;;;;;;16.4;6.9;;;;;;;;;;;;;-72
2023/03/02 05:32:01;;;;;;;;;;;;;;;1.35;88.72168;102713.8;;;;-71
2023/03/02 05:37:01;;;;;;;;;;;;;;;1.34;88.99023;102713.6;;;;-72
2023/03/02 05:42:01;;;;;;;;;;;;;;;1.34;89.35742;102711.2;;;;-71
2023/03/02 05:47:01;;;;;;;;;;;;;;;1.33;88.83496;102713.2;;;;-70
2023/03/02 05:52:01;;;;;;;;;;;;;;;1.31;89.03613;102719.8;;;;-70
2023/03/02 05:57:01;;;;;;;;;;;;;;;1.28;89.19434;102715.8;;;;-71
2023/03/02 06:01:43;;;;;;;18.2;7.1;;;;;;;;;;;;;-72
2023/03/02 06:02:03;;;;;;;;;;;;;;;1.29;89.15137;102717.7;;;;-72
2023/03/02 06:07:01;;;;;;;;;;;;;;;1.3;89.10156;102719.5;;;;-71
2023/03/02 06:12:01;;;;;;;;;;;;;;;1.32;89.49414;102715.2;;;;-70
2023/03/02 06:17:01;;;;;;;;;;;;;;;1.34;89.3252;102723.9;;;;-70
2023/03/02 06:22:01;;;;;;;;;;;;;;;1.37;89.54492;102728.1;;;;-71
2023/03/02 06:27:01;;;;;;;;;;;;;;;1.37;89.39551;102730.5;;;;-71
2023/03/02 06:31:42;;;;;;;19.4;7.9;;;;;;;;;;;;;-72
2023/03/02 06:32:01;;;;;;;;;;;;;;;1.39;89.66895;102739.7;;;;-71
2023/03/02 06:37:01;;;;;;;;;;;;;;;1.4;89.41406;102743.5;;;;-70
2023/03/02 06:42:01;;;;;;;;;;;;;;;1.42;89.66602;102748.3;;;;-71
2023/03/02 06:47:01;;;;;;;;;;;;;;;1.43;89.48438;102755.9;;;;-71
2023/03/02 06:52:01;;;;;;;;;;;;;;;1.43;89.48438;102759.6;;;;-71
2023/03/02 06:57:01;;;;;;;;;;;;;;;1.41;89.39453;102759.6;;;;-71
2023/03/02 07:01:42;;;;;;;19.9;7.3;;;;;;;;;;;;;-71
2023/03/02 07:02:01;;;;;;;;;;;;;;;1.43;89.49512;102759.1;;;;-71
2023/03/02 07:07:01;;;;;;;;;;;;;;;1.43;89.44336;102752.6;;;;-72
2023/03/02 07:12:03;;;;;;;;;;;;;;;1.43;89.38672;102759.3;;;;-71
2023/03/02 07:17:03;;;;;;;;;;;;;;;1.46;89.77051;102754.8;;;;-72
2023/03/02 07:22:01;;;;;;;;;;;;;;;1.49;89.44336;102753.9;;;;-70
2023/03/02 07:27:03;;;;;;;;;;;;;;;1.54;89.38867;102755.9;;;;-72
2023/03/02 07:31:44;;;;;;;16.8;7.2;;;;;;;;;;;;;-71
2023/03/02 07:32:02;;;;;;;;;;;;;;;1.58;89.63379;102756.6;;;;-71
2023/03/02 07:37:03;;;;;;;;;;;;;;;1.61;89.54395;102752.5;;;;-71
2023/03/02 07:42:10;;;;;;;;;;;;;;;1.66;89.5752;102753.9;;;;-72
2023/03/02 07:47:01;;;;;;;;;;;;;;;1.74;89.50586;102752.4;;;;-71
2023/03/02 07:52:01;;;;;;;;;;;;;;;1.79;89.64453;102750.1;;;;-74
2023/03/02 07:57:01;;;;;;;;;;;;;;;1.83;89.77344;102752.4;;;;-72
2023/03/02 08:01:41;;;;;;;16.6;7.6;;;;;;;;;;;;;-72
2023/03/02 08:02:01;;;;;;;;;;;;;;;1.86;89.96289;102754.4;;;;-72
2023/03/02 08:07:03;;;;;;;;;;;;;;;1.9;89.76465;102750.3;;;;-71
2023/03/02 08:12:05;;;;;;;;;;;;;;;1.99;89.98047;102751;;;;-71
2023/03/02 08:17:03;;;;;;;;;;;;;;;2.03;89.65332;102751.4;;;;-71
2023/03/02 08:22:02;;;;;;;;;;;;;;;2.12;90.41797;102751;;;;-70
2023/03/02 08:27:02;;;;;;;;;;;;;;;2.21;89.92676;102751.5;;;;-70
2023/03/02 08:31:41;;;;;;;21.1;8.5;;;;;;;;;;;;;-72
2023/03/02 08:32:01;;;;;;;;;;;;;;;2.35;89.27734;102751;;;;-71
2023/03/02 08:37:01;;;;;;;;;;;;;;;2.42;89.07422;102746.1;;;;-71
2023/03/02 08:42:00;;;;;;;;;;;;;;;2.53;89.13965;102746.8;;;;-71
2023/03/02 08:47:00;;;;;;;;;;;;;;;2.56;89.12402;102751.6;;;;-70
2023/03/02 08:52:01;;;;;;;;;;;;;;;2.65;88.79492;102752.3;;;;-73
2023/03/02 08:57:02;;;;;;;;;;;;;;;2.7;88.95898;102752.7;;;;-71
2023/03/02 09:01:41;;;;;;;20.3;8;;;;;;;;;;;;;-71
2023/03/02 09:02:01;;;;;;;;;;;;;;;2.76;88.52637;102755.1;;;;-71
2023/03/02 09:07:03;;;;;;;;;;;;;;;2.83;88.12891;102759.5;;;;-73
2023/03/02 09:12:04;;;;;;;;;;;;;;;2.89;88.1084;102753.6;;;;-70
2023/03/02 09:17:01;;;;;;;;;;;;;;;2.94;87.94336;102746.2;;;;-70
2023/03/02 09:22:01;;;;;;;;;;;;;;;3.01;87.94824;102748.7;;;;-71
2023/03/02 09:27:01;;;;;;;;;;;;;;;3.08;87.61523;102747.1;;;;-70
2023/03/02 09:31:41;;;;;;;17.3;7.7;;;;;;;;;;;;;-70
2023/03/02 09:32:01;;;;;;;;;;;;;;;3.15;87.67383;102743.9;;;;-70
2023/03/02 09:37:01;;;;;;;;;;;;;;;3.2;87.59766;102747.9;;;;-70
2023/03/02 09:42:08;;;;;;;;;;;;;;;3.25;87.56348;102747.3;;;;-71
2023/03/02 09:47:05;;;;;;;;;;;;;;;3.3;87.42285;102747.5;;;;-70
2023/03/02 09:52:10;;;;;;;;;;;;;;;3.44;87.42676;102745.5;;;;-71
2023/03/02 09:57:02;;;;;;;;;;;;;;;3.53;87.17578;102748.8;;;;-71
2023/03/02 10:01:45;;;;;;;21.7;9.2;;;;;;;;;;;;;-72
2023/03/02 10:02:05;;;;;;;;;;;;;;;3.62;87.30273;102748.2;;;;-70
2023/03/02 10:07:05;;;;;;;;;;;;;;;3.66;87.23438;102746.4;;;;-70
2023/03/02 10:12:27;;;;;;;;;;;;;;;3.71;87.01563;102742.9;;;;-70
2023/03/02 10:17:09;;;;;;;;;;;;;;;3.75;87.05664;102743.7;;;;-72
2023/03/02 10:22:03;;;;;;;;;;;;;;;3.8;87.04395;102744.2;;;;-70
2023/03/02 10:27:08;;;;;;;;;;;;;;;3.89;87.37793;102745.9;;;;-70
2023/03/02 10:31:42;;;;;;;20.3;9;;;;;;;;;;;;;-71
2023/03/02 10:32:02;;;;;;;;;;;;;;;3.96;86.94727;102737.9;;;;-71
2023/03/02 10:37:01;;;;;;;;;;;;;;;4.03;86.67676;102725.7;;;;-71
2023/03/02 10:42:02;;;;;;;;;;;;;;;4.21;87.22559;102733.7;;;;-71
2023/03/02 10:47:01;;;;;;;;;;;;;;;4.42;86.20215;102730.1;;;;-70
2023/03/02 10:52:07;;;;;;;;;;;;;;;4.83;86.68555;102728.4;;;;-71
2023/03/02 10:57:02;;;;;;;;;;;;;;;5.14;85.51465;102732.4;;;;-71
2023/03/02 11:01:41;;;;;;;21.6;9.7;;;;;;;;;;;;;-70
2023/03/02 11:02:08;;;;;;;;;;;;;;;5.49;84.43848;102735.2;;;;-71
2023/03/02 11:07:11;;;;;;;;;;;;;;;5.61;83.57715;102737.6;;;;-70
2023/03/02 11:12:03;;;;;;;;;;;;;;;5.51;83.31738;102739.6;;;;-71
2023/03/02 11:17:03;;;;;;;;;;;;;;;5.48;83.60547;102738.1;;;;-70
2023/03/02 11:22:03;;;;;;;;;;;;;;;5.5;83.25;102740;;;;-70
2023/03/02 11:27:03;;;;;;;;;;;;;;;5.54;83.01855;102728;;;;-70
2023/03/02 11:31:44;;;;;;;21.6;9.5;;;;;;;;;;;;;-70
2023/03/02 11:32:04;;;;;;;;;;;;;;;5.6;83.16016;102730.2;;;;-71
2023/03/02 11:37:06;;;;;;;;;;;;;;;5.64;83.86816;102726.2;;;;-71
2023/03/02 11:42:01;;;;;;;;;;;;;;;5.64;83.24512;102715.7;;;;-72
2023/03/02 11:47:03;;;;;;;;;;;;;;;5.75;82.99121;102713.9;;;;-71
2023/03/02 11:52:02;;;;;;;;;;;;;;;6.01;84.33203;102713.8;;;;-71
2023/03/02 11:57:01;;;;;;;;;;;;;;;6.15;82.76172;102703.1;;;;-71
2023/03/02 12:01:42;;;;;;;24.1;10.6;;;;;;;;;;;;;-71
2023/03/02 12:02:01;;;;;;;;;;;;;;;6.23;82.21875;102693.9;;;;-71
2023/03/02 12:07:01;;;;;;;;;;;;;;;6.48;81.90625;102697.8;;;;-70
2023/03/02 12:12:02;;;;;;;;;;;;;;;6.69;80.93652;102697;;;;-71
2023/03/02 12:17:21;;;;;;;;;;;;;;;6.88;83.30762;102690.4;;;;-70
2023/03/02 12:22:05;;;;;;;;;;;;;;;6.9;81.3252;102683.2;;;;-69
2023/03/02 12:27:09;;;;;;;;;;;;;;;6.9;80.67969;102675.3;;;;-71
2023/03/02 12:31:50;;;;;;;22;10.3;;;;;;;;;;;;;-71
2023/03/02 12:32:01;;;;;;;;;;;;;;;6.92;80.77051;102670.1;;;;-71
2023/03/02 12:37:02;;;;;;;;;;;;;;;7.04;80.75977;102672.3;;;;-71
2023/03/02 12:42:16;;;;;;;;;;;;;;;7.25;80.74414;102672;;;;-70
2023/03/02 12:47:02;;;;;;;;;;;;;;;7.33;80.61621;102671.5;;;;-72
2023/03/02 12:52:02;;;;;;;;;;;;;;;7.45;80.93555;102665.7;;;;-72
2023/03/02 12:57:16;;;;;;;;;;;;;;;7.64;84.97852;102667.6;;;;-69
2023/03/02 13:01:43;;;;;;;23.2;11.1;;;;;;;;;;;;;-71
2023/03/02 13:02:15;;;;;;;;;;;;;;;7.66;81.39355;102667.6;;;;-70
2023/03/02 13:07:01;;;;;;;;;;;;;;;7.77;81.73047;102656;;;;-71
2023/03/02 13:12:01;;;;;;;;;;;;;;;7.85;79.55859;102650.3;;;;-69
2023/03/02 13:17:02;;;;;;;;;;;;;;;8.13;82.45898;102640.4;;;;-69
2023/03/02 13:22:01;;;;;;;;;;;;;;;8.11;78.71484;102631.9;;;;-70
2023/03/02 13:27:03;;;;;;;;;;;;;;;8.08;77.68652;102627.1;;;;-70
2023/03/02 13:31:44;;;;;;;22.7;10.8;;;;;;;;;;;;;-70
2023/03/02 13:32:01;;;;;;;;;;;;;;;8.33;80.4834;102627.5;;;;-69
2023/03/02 13:37:01;;;;;;;;;;;;;;;8.32;78.43164;102618.4;;;;-70
2023/03/02 13:42:02;;;;;;;;;;;;;;;8.45;78.49121;102609.2;;;;-72
2023/03/02 13:47:01;;;;;;;;;;;;;;;8.64;82.51172;102609.4;;;;-69
2023/03/02 13:52:04;;;;;;;;;;;;;;;8.59;78.01855;102600;;;;-70
2023/03/02 13:57:01;;;;;;;;;;;;;;;8.51;78.0498;102588;;;;-70
2023/03/02 14:01:45;;;;;;;21.2;10.7;;;;;;;;;;;;;-69
2023/03/02 14:02:00;;;;;;;;;;;;;;;8.64;77.47656;102585.1;;;;-71
2023/03/02 14:07:01;;;;;;;;;;;;;;;8.71;79.19727;102582.1;;;;-70
2023/03/02 14:12:04;;;;;;;;;;;;;;;8.74;78.03516;102574.4;;;;-70
2023/03/02 14:17:01;;;;;;;;;;;;;;;8.82;77.18945;102576;;;;-70
2023/03/02 14:22:01;;;;;;;;;;;;;;;8.82;76.60352;102566;;;;-69
2023/03/02 14:27:02;;;;;;;;;;;;;;;8.91;77.64551;102559.9;;;;-70
2023/03/02 14:31:46;;;;;;;23.3;11.7;;;;;;;;;;;;;-70
2023/03/02 14:32:02;;;;;;;;;;;;;;;8.97;79.59766;102554.3;;;;-70
2023/03/02 14:37:07;;;;;;;;;;;;;;;8.96;76.70605;102558.8;;;;-70
2023/03/02 14:42:01;;;;;;;;;;;;;;;9.05;78.06836;102559.6;;;;-70
2023/03/02 14:47:01;;;;;;;;;;;;;;;9.1;79.67578;102556.2;;;;-70
2023/03/02 14:52:09;;;;;;;;;;;;;;;9.1;78.60645;102551.8;;;;-70
2023/03/02 14:57:05;;;;;;;;;;;;;;;9.1;77.74512;102551.4;;;;-71
2023/03/02 15:01:47;;;;;;;22.5;11.2;;;;;;;;;;;;;-70
2023/03/02 15:02:03;;;;;;;;;;;;;;;9.07;78.21484;102543.5;;;;-70
2023/03/02 15:07:03;;;;;;;;;;;;;;;9.23;79.96582;102545.4;;;;-71
2023/03/02 15:12:01;;;;;;;;;;;;;;;9.15;77.2793;102542.4;;;;-71
2023/03/02 15:17:00;;;;;;;;;;;;;;;9.15;77.14648;102539.9;;;;-69
2023/03/02 15:22:04;;;;;;;;;;;;;;;9.08;77.07031;102535.4;;;;-70
2023/03/02 15:27:00;;;;;;;;;;;;;;;9.03;76.74121;102534.1;;;;-69
2023/03/02 15:31:48;;;;;;;20.7;10.6;;;;;;;;;;;;;-71
2023/03/02 15:32:00;;;;;;;;;;;;;;;9;77.16699;102539;;;;-70
2023/03/02 15:37:02;;;;;;;;;;;;;;;8.95;77.35547;102538.7;;;;-70
2023/03/02 15:42:01;;;;;;;;;;;;;;;8.89;77.50977;102536.6;;;;-70
2023/03/02 15:47:01;;;;;;;;;;;;;;;8.85;77.27148;102533;;;;-70
2023/03/02 15:52:01;;;;;;;;;;;;;;;8.79;78.10938;102534.1;;;;-73
2023/03/02 15:57:01;;;;;;;;;;;;;;;8.67;77.96875;102536.8;;;;-73
2023/03/02 16:01:58;;;;;;;19.8;9.4;;;;;;;;;;;;;-73
2023/03/02 16:02:08;;;;;;;;;;;;;;;8.58;77.66602;102540.1;;;;-74
2023/03/02 16:07:01;;;;;;;;;;;;;;;8.52;77.68555;102541.3;;;;-73
2023/03/02 16:12:01;;;;;;;;;;;;;;;8.49;77.7041;102542.7;;;;-73
2023/03/02 16:17:01;;;;;;;;;;;;;;;8.47;77.79883;102544.9;;;;-73
2023/03/02 16:22:00;;;;;;;;;;;;;;;8.35;78.16309;102545.9;;;;-73
2023/03/02 16:27:03;;;;;;;;;;;;;;;8.2;77.63086;102545.2;;;;-70
2023/03/02 16:31:51;;;;;;;21.7;8.7;;;;;;;;;;;;;-70
2023/03/02 16:32:01;;;;;;;;;;;;;;;8.03;78.38086;102540.1;;;;-71
2023/03/02 16:37:02;;;;;;;;;;;;;;;7.91;80.12012;102551.1;;;;-71
2023/03/02 16:42:03;;;;;;;;;;;;;;;7.76;81.4873;102554.6;;;;-71
2023/03/02 16:47:01;;;;;;;;;;;;;;;7.65;82.8291;102559.8;;;;-71
2023/03/02 16:52:05;;;;;;;;;;;;;;;7.47;82.51953;102563.2;;;;-71
2023/03/02 16:57:02;;;;;;;;;;;;;;;7.34;83.11035;102571.3;;;;-70
2023/03/02 17:01:51;;;;;;;20.1;8.1;;;;;;;;;;;;;-70
2023/03/02 17:02:02;;;;;;;;;;;;;;;7.18;83.83594;102573.3;;;;-71
2023/03/02 17:07:03;;;;;;;;;;;;;;;7.03;84.36621;102581.3;;;;-70
2023/03/02 17:12:04;;;;;;;;;;;;;;;6.88;84.45703;102586.8;;;;-71
2023/03/02 17:17:01;;;;;;;;;;;;;;;6.73;85.80859;102589.3;;;;-71
2023/03/02 17:22:03;;;;;;;;;;;;;;;6.56;85.64258;102589.3;;;;-71
2023/03/02 17:27:09;;;;;;;;;;;;;;;6.41;85.97461;102602.8;;;;-70
2023/03/02 17:31:52;;;;;;;14;6.5;;;;;;;;;;;;;-70
2023/03/02 17:32:01;;;;;;;;;;;;;;;6.24;86.02832;102609.7;;;;-70
2023/03/02 17:37:01;;;;;;;;;;;;;;;6.07;86.35645;102617.9;;;;-71
2023/03/02 17:42:00;;;;;;;;;;;;;;;5.92;86.55469;102624.7;;;;-70
2023/03/02 17:47:02;;;;;;;;;;;;;;;5.77;86.49121;102626.9;;;;-70
2023/03/02 17:52:00;;;;;;;;;;;;;;;5.62;86.375;102632.5;;;;-70
2023/03/02 17:57:01;;;;;;;;;;;;;;;5.49;86.74219;102634;;;;-70
2023/03/02 18:01:55;;;;;;;14.4;6;;;;;;;;;;;;;-70
2023/03/02 18:02:05;;;;;;;;;;;;;;;5.32;86.84961;102632.3;;;;-70
2023/03/02 18:07:01;;;;;;;;;;;;;;;5.29;86.61328;102651.5;;;;-70
2023/03/02 18:12:04;;;;;;;;;;;;;;;5.14;86.22559;102650.3;;;;-70
2023/03/02 18:17:00;;;;;;;;;;;;;;;5.01;86.15332;102654.9;;;;-71
2023/03/02 18:22:01;;;;;;;;;;;;;;;4.86;86.66895;102659.4;;;;-71
2023/03/02 18:27:01;;;;;;;;;;;;;;;4.74;86.29883;102663.9;;;;-71
2023/03/02 18:31:55;;;;;;;10.5;5;;;;;;;;;;;;;-71
2023/03/02 18:32:05;;;;;;;;;;;;;;;4.62;86.66504;102667.3;;;;-70
2023/03/02 18:37:02;;;;;;;;;;;;;;;4.5;86.67383;102671.4;;;;-70
2023/03/02 18:42:00;;;;;;;;;;;;;;;4.43;86.75781;102665.1;;;;-70
2023/03/02 18:47:01;;;;;;;;;;;;;;;4.3;87.03711;102670.9;;;;-71
2023/03/02 18:52:05;;;;;;;;;;;;;;;4.2;87.09277;102674.5;;;;-71
2023/03/02 18:57:01;;;;;;;;;;;;;;;4.07;87.18848;102680.8;;;;-70
2023/03/02 19:01:53;;;;;;;8.3;4.3;;;;;;;;;;;;;-71
2023/03/02 19:02:03;;;;;;;;;;;;;;;3.97;87.27539;102685.3;;;;-71
2023/03/02 19:07:05;;;;;;;;;;;;;;;3.85;87.38184;102690.7;;;;-75
2023/03/02 19:12:00;;;;;;;;;;;;;;;3.75;87.67676;102689.3;;;;-71
2023/03/02 19:17:00;;;;;;;;;;;;;;;3.67;87.86621;102696.8;;;;-71
2023/03/02 19:22:00;;;;;;;;;;;;;;;3.59;88.12305;102694.1;;;;-71
2023/03/02 19:27:01;;;;;;;;;;;;;;;3.53;88.24023;102693.7;;;;-71
2023/03/02 19:31:56;;;;;;;10.4;4.3;;;;;;;;;;;;;-71
2023/03/02 19:32:09;;;;;;;;;;;;;;;3.46;88.45117;102692.8;;;;-71
2023/03/02 19:37:01;;;;;;;;;;;;;;;3.4;88.48535;102696.2;;;;-71
2023/03/02 19:42:00;;;;;;;;;;;;;;;3.36;88.50684;102693.8;;;;-71
2023/03/02 19:47:05;;;;;;;;;;;;;;;3.3;88.44336;102694.5;;;;-71
2023/03/02 19:52:01;;;;;;;;;;;;;;;3.23;88.71094;102705.5;;;;-71
2023/03/02 19:57:03;;;;;;;;;;;;;;;3.17;88.52344;102706.7;;;;-69
2023/03/02 20:01:55;;;;;;;8.7;3.9;;;;;;;;;;;;;-70
2023/03/02 20:02:05;;;;;;;;;;;;;;;3.08;88.68945;102707.3;;;;-70
2023/03/02 20:07:02;;;;;;;;;;;;;;;3.07;88.76367;102711.9;;;;-71
2023/03/02 20:12:01;;;;;;;;;;;;;;;3.01;88.79395;102715.4;;;;-71
2023/03/02 20:17:00;;;;;;;;;;;;;;;2.95;88.8584;102708.2;;;;-71
2023/03/02 20:22:01;;;;;;;;;;;;;;;2.87;88.76563;102709.5;;;;-71
2023/03/02 20:27:05;;;;;;;;;;;;;;;2.82;88.91699;102708.9;;;;-72
2023/03/02 20:31:54;;;;;;;7.6;3.5;;;;;;;;;;;;;-71
2023/03/02 20:32:08;;;;;;;;;;;;;;;2.76;88.99219;102710.4;;;;-71
2023/03/02 20:37:02;;;;;;;;;;;;;;;2.7;88.96777;102721.3;;;;-70
2023/03/02 20:42:03;;;;;;;;;;;;;;;2.68;88.96484;102721.6;;;;-72
2023/03/02 20:47:02;;;;;;;;;;;;;;;2.6;89.03613;102721.2;;;;-73
2023/03/02 20:52:01;;;;;;;;;;;;;;;2.57;89.10449;102723.6;;;;-71
2023/03/02 20:57:04;;;;;;;;;;;;;;;2.54;89.11816;102725.4;;;;-70
2023/03/02 21:01:54;;;;;;;10;3.6;;;;;;;;;;;;;-70
2023/03/02 21:02:03;;;;;;;;;;;;;;;2.46;89.38477;102730.3;;;;-72
2023/03/02 21:07:00;;;;;;;;;;;;;;;2.43;89.51953;102729;;;;-72
2023/03/02 21:12:01;;;;;;;;;;;;;;;2.41;89.34082;102730.6;;;;-72
2023/03/02 21:17:01;;;;;;;;;;;;;;;2.37;89.64746;102728.7;;;;-71
2023/03/02 21:22:01;;;;;;;;;;;;;;;2.36;89.69922;102724.5;;;;-71
2023/03/02 21:27:01;;;;;;;;;;;;;;;2.31;89.78711;102731.2;;;;-72
2023/03/02 21:31:54;;;;;;;8.6;3.8;;;;;;;;;;;;;-72
2023/03/02 21:32:06;;;;;;;;;;;;;;;2.29;89.51074;102728.7;;;;-71
2023/03/02 21:37:00;;;;;;;;;;;;;;;2.25;89.74414;102730.1;;;;-71
2023/03/02 22:01:54;;;;;;;9.6;3.8;;;;;;;;;;;;;-71
2023/03/02 22:02:14;;;;;;;;;;;;;;;2.12;89.96387;102740.4;;;;-70
2023/03/02 22:07:13;;;;;;;;;;;;;;;2.07;89.66211;102735;;;;-70
2023/03/02 22:12:15;;;;;;;;;;;;;;;2.05;89.71094;102742.6;;;;-70
2023/03/02 22:17:18;;;;;;;;;;;;;;;2;89.56934;102738.9;;;;-71
2023/03/02 22:22:18;;;;;;;;;;;;;;;1.98;89.56543;102738.5;;;;-71
2023/03/02 22:27:21;;;;;;;;;;;;;;;1.89;89.36328;102742.3;;;;-71
2023/03/02 22:31:55;;;;;;;8.4;3.6;;;;;;;;;;;;;-70
2023/03/02 22:32:21;;;;;;;;;;;;;;;1.83;89.66504;102745.7;;;;-71
2023/03/02 22:37:20;;;;;;;;;;;;;;;1.81;89.53125;102745.6;;;;-71
2023/03/02 22:42:15;;;;;;;;;;;;;;;1.73;89.51465;102740.9;;;;-71
2023/03/02 22:47:17;;;;;;;;;;;;;;;1.68;89.4082;102743.2;;;;-71
2023/03/02 22:52:17;;;;;;;;;;;;;;;1.65;89.25977;102736.3;;;;-70
2023/03/02 22:57:22;;;;;;;;;;;;;;;1.6;89.36914;102734.8;;;;-72
2023/03/02 23:01:54;;;;;;;8.3;3.6;;;;;;;;;;;;;-71
2023/03/02 23:02:24;;;;;;;;;;;;;;;1.54;89.41016;102734.9;;;;-71
2023/03/02 23:07:20;;;;;;;;;;;;;;;1.46;89.38184;102735.5;;;;-70
2023/03/02 23:12:18;;;;;;;;;;;;;;;1.39;89.29102;102744.4;;;;-72
2023/03/02 23:17:16;;;;;;;;;;;;;;;1.31;89.42676;102740.6;;;;-71
2023/03/02 23:22:13;;;;;;;;;;;;;;;1.24;89.34766;102735.8;;;;-70
2023/03/02 23:27:14;;;;;;;;;;;;;;;1.2;89.19727;102737.9;;;;-71
2023/03/02 23:31:53;;;;;;;8.1;3.4;;;;;;;;;;;;;-70
2023/03/02 23:32:14;;;;;;;;;;;;;;;1.11;89.21289;102739.2;;;;-71
2023/03/02 23:37:13;;;;;;;;;;;;;;;1.06;89.45117;102744.4;;;;-71
2023/03/02 23:42:16;;;;;;;;;;;;;;;0.99;89.79004;102740.7;;;;-71
2023/03/02 23:47:13;;;;;;;;;;;;;;;0.97;89.46289;102734.4;;;;-71
2023/03/02 23:52:13;;;;;;;;;;;;;;;0.95;89.53613;102731.2;;;;-71
2023/03/02 23:57:13;;;;;;;;;;;;;;;0.93;89.58496;102733.4;;;;-71
